Nissho Maru No.18 — JL6369 — position and weather

sailwx.info

Track history (hours):
 
Tides and Currents Weather Stations Pressure Air Temp Water Temp Dewpoint Dewpoint Depression Visibility Wind Speed Wind Dir Waves Ship Positions

Nissho Maru No.18

Last reported at 2016-Dec-09 07:33 UTC. Time now 2016-Dec-10 07:06 UTC.
Position N 35°12' E 139°46'.

Length 65 m; draft 4 m.

Type: Tanker. MMSI: 431500465.

Date/timePositionNaut miles runAvg speedWind from/ knotsBaromVisibWave heightAir tempDewpointWater temp
2016-Dec-09 07:33N 35°12' E 139°46'1010.4
2016-Dec-09 06:33N 35°22' E 139°42'10 9.5
2016-Dec-09 05:33N 35°29' E 139°51'8 1.3
2016-Dec-08 23:18N 35°29' E 140°01'4 5.0
2016-Dec-08 22:33N 35°29' E 139°56'0 0.0
2016-Dec-08 21:30N 35°29' E 139°56'0 0.1
2016-Dec-08 20:33N 35°29' E 139°56'0 0.0
2016-Dec-08 17:33N 35°29' E 139°56'0 0.0
2016-Dec-08 16:33N 35°29' E 139°56'0 0.0
2016-Dec-08 15:33N 35°29' E 139°56'0 0.0
2016-Dec-08 14:33N 35°29' E 139°56'0 0.0
2016-Dec-08 13:33N 35°29' E 139°56'0 0.0
2016-Dec-08 12:33N 35°29' E 139°56'0 0.0
2016-Dec-08 11:33N 35°29' E 139°56'0 0.0
2016-Dec-08 10:33N 35°29' E 139°56'8 8.0
2016-Dec-08 09:33N 35°25' E 139°47'1310.8
2016-Dec-08 08:22N 35°12' E 139°47'243 9.4
2016-Dec-07 06:27N 34°18' E 134°58'1010.9
2016-Dec-07 05:32N 34°28' E 135°01'9 8.9
2016-Dec-07 04:33N 34°37' E 135°01'14 1.4
2016-Dec-06 18:32N 34°41' E 134°45'1111.2
2016-Dec-06 17:33N 34°38' E 134°57'9 9.0
2016-Dec-06 16:33N 34°30' E 135°04'1511.4
2016-Dec-06 15:16N 34°16' E 134°59'811.1
2016-Dec-06 14:33N 34°08' E 134°60'245 8.2
2016-Dec-05 08:34N 35°25' E 139°43'1110.7
2016-Dec-05 07:33N 35°30' E 139°55'5 2.4
2016-Dec-05 05:24N 35°29' E 140°01'0 0.0
2016-Dec-05 03:04N 35°29' E 140°01'0 0.0
2016-Dec-05 02:25N 35°29' E 140°01'0 0.1
2016-Dec-04 23:27N 35°29' E 140°01'4 4.5
2016-Dec-04 22:34N 35°29' E 139°56'0 0.0
2016-Dec-04 21:31N 35°29' E 139°56'0 0.0
2016-Dec-04 19:32N 35°29' E 139°56'0 0.0
2016-Dec-04 13:33N 35°29' E 139°56'0 0.1
2016-Dec-04 12:28N 35°29' E 139°56'0 0.0
2016-Dec-04 11:06N 35°29' E 139°56'0 0.0
2016-Dec-04 10:34N 35°29' E 139°56'0 0.0
2016-Dec-04 09:34N 35°29' E 139°56'0 0.0
2016-Dec-04 08:32N 35°29' E 139°56'0 0.0
2016-Dec-04 07:33N 35°29' E 139°56'0 0.0
2016-Dec-04 06:33N 35°29' E 139°56'1 1.0
2016-Dec-04 05:34N 35°30' E 139°56'8 8.1
2016-Dec-04 04:33N 35°33' E 140°05'8 2.0
2016-Dec-04 00:30N 35°29' E 139°56'0 0.0
2016-Dec-03 23:24N 35°29' E 139°56'0 0.0
2016-Dec-03 19:18N 35°29' E 139°56'0 0.0
2016-Dec-03 18:33N 35°29' E 139°56'0 0.0
2016-Dec-03 17:34N 35°29' E 139°56'8 8.0
2016-Dec-03 16:34N 35°25' E 139°47'10 9.7
2016-Dec-03 15:34N 35°15' E 139°47'1110.8
2016-Dec-03 14:33N 35°05' E 139°45'  
2016-Dec-01 06:24N 35°08' E 139°45'910.6
2016-Dec-01 05:33N 35°16' E 139°45'9 9.4
2016-Dec-01 04:33N 35°26' E 139°45'1410.6
2016-Dec-01 03:14N 35°30' E 140°01'1 0.8
2016-Dec-01 02:30N 35°30' E 140°02'0 0.0
2016-Dec-01 01:32N 35°30' E 140°02'0 0.0
2016-Nov-30 23:25N 35°30' E 140°02'2 2.2
2016-Nov-30 22:33N 35°32' E 140°02'1 0.0
2016-Nov-29 12:33N 35°33' E 140°01'  
Track history (hours):
 
Tides and Currents Weather Stations Pressure Air Temp Water Temp Dewpoint Dewpoint Depression Visibility Wind Speed Wind Dir Waves Ship Positions

Nissho Maru No.18

Last reported at 2016-Dec-09 07:33 UTC. Time now 2016-Dec-10 07:06 UTC.
Position N 35°12' E 139°46'.

Length 65 m; draft 4 m.

Type: Tanker. MMSI: 431500465.

Date/timePositionNaut miles runAvg speedWind from/ knotsBaromVisibWave heightAir tempDewpointWater temp
2016-Dec-09 07:33N 35°12' E 139°46'1010.4
2016-Dec-09 06:33N 35°22' E 139°42'10 9.5
2016-Dec-09 05:33N 35°29' E 139°51'8 1.3
2016-Dec-08 23:18N 35°29' E 140°01'4 5.0
2016-Dec-08 22:33N 35°29' E 139°56'0 0.0
2016-Dec-08 21:30N 35°29' E 139°56'0 0.1
2016-Dec-08 20:33N 35°29' E 139°56'0 0.0
2016-Dec-08 17:33N 35°29' E 139°56'0 0.0
2016-Dec-08 16:33N 35°29' E 139°56'0 0.0
2016-Dec-08 15:33N 35°29' E 139°56'0 0.0
2016-Dec-08 14:33N 35°29' E 139°56'0 0.0
2016-Dec-08 13:33N 35°29' E 139°56'0 0.0
2016-Dec-08 12:33N 35°29' E 139°56'0 0.0
2016-Dec-08 11:33N 35°29' E 139°56'0 0.0
2016-Dec-08 10:33N 35°29' E 139°56'8 8.0
2016-Dec-08 09:33N 35°25' E 139°47'1310.8
2016-Dec-08 08:22N 35°12' E 139°47'243 9.4
2016-Dec-07 06:27N 34°18' E 134°58'1010.9
2016-Dec-07 05:32N 34°28' E 135°01'9 8.9
2016-Dec-07 04:33N 34°37' E 135°01'14 1.4
2016-Dec-06 18:32N 34°41' E 134°45'1111.2
2016-Dec-06 17:33N 34°38' E 134°57'9 9.0
2016-Dec-06 16:33N 34°30' E 135°04'1511.4
2016-Dec-06 15:16N 34°16' E 134°59'811.1
2016-Dec-06 14:33N 34°08' E 134°60'245 8.2
2016-Dec-05 08:34N 35°25' E 139°43'1110.7
2016-Dec-05 07:33N 35°30' E 139°55'5 2.4
2016-Dec-05 05:24N 35°29' E 140°01'0 0.0
2016-Dec-05 03:04N 35°29' E 140°01'0 0.0
2016-Dec-05 02:25N 35°29' E 140°01'0 0.1
2016-Dec-04 23:27N 35°29' E 140°01'4 4.5
2016-Dec-04 22:34N 35°29' E 139°56'0 0.0
2016-Dec-04 21:31N 35°29' E 139°56'0 0.0
2016-Dec-04 19:32N 35°29' E 139°56'0 0.0
2016-Dec-04 13:33N 35°29' E 139°56'0 0.1
2016-Dec-04 12:28N 35°29' E 139°56'0 0.0
2016-Dec-04 11:06N 35°29' E 139°56'0 0.0
2016-Dec-04 10:34N 35°29' E 139°56'0 0.0
2016-Dec-04 09:34N 35°29' E 139°56'0 0.0
2016-Dec-04 08:32N 35°29' E 139°56'0 0.0
2016-Dec-04 07:33N 35°29' E 139°56'0 0.0
2016-Dec-04 06:33N 35°29' E 139°56'1 1.0
2016-Dec-04 05:34N 35°30' E 139°56'8 8.1
2016-Dec-04 04:33N 35°33' E 140°05'8 2.0
2016-Dec-04 00:30N 35°29' E 139°56'0 0.0
2016-Dec-03 23:24N 35°29' E 139°56'0 0.0
2016-Dec-03 19:18N 35°29' E 139°56'0 0.0
2016-Dec-03 18:33N 35°29' E 139°56'0 0.0
2016-Dec-03 17:34N 35°29' E 139°56'8 8.0
2016-Dec-03 16:34N 35°25' E 139°47'10 9.7
2016-Dec-03 15:34N 35°15' E 139°47'1110.8
2016-Dec-03 14:33N 35°05' E 139°45'  
2016-Dec-01 06:24N 35°08' E 139°45'910.6
2016-Dec-01 05:33N 35°16' E 139°45'9 9.4
2016-Dec-01 04:33N 35°26' E 139°45'1410.6
2016-Dec-01 03:14N 35°30' E 140°01'1 0.8
2016-Dec-01 02:30N 35°30' E 140°02'0 0.0
2016-Dec-01 01:32N 35°30' E 140°02'0 0.0
2016-Nov-30 23:25N 35°30' E 140°02'2 2.2
2016-Nov-30 22:33N 35°32' E 140°02'1 0.0
2016-Nov-29 12:33N 35°33' E 140°01'  

Dump ship's entire track history